Time;durP1;ratioP1;P1;durP2;ratioP2;P2;SDS_P1;SDS_P2;PMS_P1;PMS_P2;Temp;Humidity;BMP_temperature;BMP_pressure;BME280_temperature;BME280_humidity;BME280_pressure;Samples;Min_cycle;Max_cycle;Signal;HPM_P1;HPM_P2
2023/10/17 00:00:12;;;;;;;4.32;3.92;;;;;;;;;;5042315;28;20198;-85
2023/10/17 00:02:41;;;;;;;5.45;4.90;;;;;;;;;;5039032;28;20210;-85
2023/10/17 00:05:10;;;;;;;3.17;2.95;;;;;;;;;;5038789;28;20222;-86
2023/10/17 00:07:43;;;;;;;3.85;3.55;;;;;;;;;;5040675;28;20198;-86
2023/10/17 00:10:14;;;;;;;4.50;4.13;;;;;;;;;;5042311;28;20218;-86
2023/10/17 00:12:44;;;;;;;4.30;3.90;;;;;;;;;;5038833;28;20663;-85
2023/10/17 00:15:27;;;;;;;4.88;4.40;;;;;;;;;;5038918;28;20234;-86
2023/10/17 00:18:00;;;;;;;4.57;4.18;;;;;;;;;;5041467;28;20209;-84
2023/10/17 00:20:32;;;;;;;4.88;4.47;;;;;;;;;;5041463;28;20210;-85
2023/10/17 00:23:04;;;;;;;4.70;4.00;;;;;;;;;;5040591;28;20742;-85
2023/10/17 00:25:31;;;;;;;5.03;4.57;;;;;;;;;;5041144;28;20213;-85
2023/10/17 00:27:59;;;;;;;5.22;4.68;;;;;;;;;;5040502;28;20725;-85
2023/10/17 00:30:29;;;;;;;5.75;5.13;;;;;;;;;;5037125;28;20699;-85
2023/10/17 00:32:57;;;;;;;5.57;4.65;;;;;;;;;;5039401;28;20199;-85
2023/10/17 00:35:26;;;;;;;4.75;4.35;;;;;;;;;;5040204;28;20683;-85
2023/10/17 00:37:57;;;;;;;5.00;4.50;;;;;;;;;;5042413;28;20236;-85
2023/10/17 00:40:43;;;;;;;4.25;3.85;;;;;;;;;;5040004;28;20213;-85
2023/10/17 00:43:12;;;;;;;5.00;4.43;;;;;;;;;;5038215;28;20198;-84
2023/10/17 00:45:40;;;;;;;4.35;4.00;;;;;;;;;;5038106;28;20553;-85
2023/10/17 00:48:17;;;;;;;4.78;3.97;;;;;;;;;;5040328;28;20199;-86
2023/10/17 00:50:46;;;;;;;4.60;3.90;;;;;;;;;;5038461;28;20205;-86
2023/10/17 00:53:14;;;;;;;4.32;3.92;;;;;;;;;;5038404;28;20194;-86
2023/10/17 00:55:50;;;;;;;4.82;4.03;;;;;;;;;;5041022;28;20409;-84
2023/10/17 00:58:21;;;;;;;6.25;5.18;;;;;;;;;;5037961;28;20233;-84
2023/10/17 01:00:53;;;;;;;4.72;4.22;;;;;;;;;;5039069;28;20222;-86
2023/10/17 01:03:21;;;;;;;4.10;3.80;;;;;;;;;;5039281;28;20221;-85
2023/10/17 01:06:10;;;;;;;5.20;4.50;;;;;;;;;;5038818;28;20198;-86
2023/10/17 01:08:39;;;;;;;4.30;3.90;;;;;;;;;;5041462;28;20194;-84
2023/10/17 01:11:16;;;;;;;4.10;3.70;;;;;;;;;;5038472;28;20202;-85
2023/10/17 01:13:43;;;;;;;4.07;3.67;;;;;;;;;;5037176;28;20218;-84
2023/10/17 01:16:15;;;;;;;3.63;3.33;;;;;;;;;;5035735;28;20286;-84
2023/10/17 01:18:45;;;;;;;4.88;4.28;;;;;;;;;;5036762;28;20245;-84
2023/10/17 01:21:17;;;;;;;4.07;3.70;;;;;;;;;;5035810;28;20202;-84
2023/10/17 01:23:46;;;;;;;7.35;4.10;;;;;;;;;;5036466;28;20226;-84
2023/10/17 01:26:20;;;;;;;5.13;3.88;;;;;;;;;;5036465;28;20195;-84
2023/10/17 01:28:49;;;;;;;6.07;4.13;;;;;;;;;;5035313;28;20694;-84
2023/10/17 01:31:22;;;;;;;5.07;4.05;;;;;;;;;;5035733;28;20196;-84
2023/10/17 01:33:52;;;;;;;3.58;3.30;;;;;;;;;;5035445;28;20214;-84
2023/10/17 01:36:20;;;;;;;3.80;3.42;;;;;;;;;;5035085;28;20222;-84
2023/10/17 01:38:49;;;;;;;4.25;3.70;;;;;;;;;;5038493;28;20201;-84
2023/10/17 01:41:19;;;;;;;3.15;2.95;;;;;;;;;;5036513;28;20198;-85
2023/10/17 01:43:47;;;;;;;4.28;3.65;;;;;;;;;;5035306;28;20230;-85
2023/10/17 01:46:15;;;;;;;4.35;3.97;;;;;;;;;;5038958;28;20574;-84
2023/10/17 01:48:47;;;;;;;5.45;3.67;;;;;;;;;;5034977;28;20582;-84
2023/10/17 01:51:15;;;;;;;4.20;3.63;;;;;;;;;;5035134;28;20194;-84
2023/10/17 01:53:45;;;;;;;6.03;4.03;;;;;;;;;;5034867;28;20226;-84
2023/10/17 01:56:15;;;;;;;4.07;3.67;;;;;;;;;;5036141;28;20222;-84
2023/10/17 01:58:48;;;;;;;4.50;4.10;;;;;;;;;;5034997;28;20635;-86
2023/10/17 02:01:17;;;;;;;5.45;4.95;;;;;;;;;;5034675;28;20199;-86
2023/10/17 02:03:46;;;;;;;4.20;3.90;;;;;;;;;;5032700;28;20222;-85
2023/10/17 02:06:16;;;;;;;4.22;3.92;;;;;;;;;;5035158;28;20225;-85
2023/10/17 02:08:45;;;;;;;4.40;4.00;;;;;;;;;;5037867;28;20619;-85
2023/10/17 02:11:24;;;;;;;4.18;3.85;;;;;;;;;;5035027;28;20206;-84
2023/10/17 02:13:56;;;;;;;5.70;4.82;;;;;;;;;;5037316;28;20214;-85
2023/10/17 02:16:24;;;;;;;4.68;4.07;;;;;;;;;;5035476;28;20603;-85
2023/10/17 02:18:54;;;;;;;4.80;4.38;;;;;;;;;;5034998;28;20297;-85
2023/10/17 02:21:22;;;;;;;3.97;3.67;;;;;;;;;;5034802;28;20202;-84
2023/10/17 02:23:50;;;;;;;4.28;3.88;;;;;;;;;;5034472;28;20233;-86
2023/10/17 02:26:22;;;;;;;4.28;3.42;;;;;;;;;;5035099;28;20214;-85
2023/10/17 02:28:54;;;;;;;3.42;3.08;;;;;;;;;;5034701;28;20672;-85
2023/10/17 02:31:27;;;;;;;3.92;3.08;;;;;;;;;;5034122;28;20206;-84
2023/10/17 02:33:55;;;;;;;2.75;2.55;;;;;;;;;;5034178;28;20626;-84
2023/10/17 02:36:23;;;;;;;2.97;2.78;;;;;;;;;;5033646;28;20309;-84
2023/10/17 02:38:51;;;;;;;3.10;2.90;;;;;;;;;;5030149;28;20557;-84
2023/10/17 02:41:19;;;;;;;3.60;3.30;;;;;;;;;;5033444;28;20209;-84
2023/10/17 02:43:47;;;;;;;4.35;3.15;;;;;;;;;;5032913;28;20226;-84
2023/10/17 02:46:18;;;;;;;4.30;3.13;;;;;;;;;;5033555;28;20292;-84
2023/10/17 02:48:47;;;;;;;3.33;2.65;;;;;;;;;;5033405;28;20198;-84
2023/10/17 02:51:31;;;;;;;3.17;2.88;;;;;;;;;;5033242;28;20194;-84
2023/10/17 02:53:59;;;;;;;3.50;3.03;;;;;;;;;;5033119;28;20276;-84
2023/10/17 02:56:28;;;;;;;1.83;1.73;;;;;;;;;;5033131;28;20305;-84
2023/10/17 02:59:07;;;;;;;1.98;1.60;;;;;;;;;;5033357;28;20202;-84
2023/10/17 03:01:37;;;;;;;2.55;2.35;;;;;;;;;;5033256;28;20285;-84
2023/10/17 03:04:09;;;;;;;1.70;1.60;;;;;;;;;;5018761;28;20237;-85
2023/10/17 03:06:41;;;;;;;1.73;1.63;;;;;;;;;;5019446;28;20241;-84
2023/10/17 03:12:19;;;;;;;1.50;1.40;;;;;;;;;;5060104;27;1259239;-85
2023/10/17 03:17:33;;;;;;;4.53;2.88;;;;;;;;;;5086386;28;20334;-86
2023/10/17 03:19:59;;;;;;;3.13;2.92;;;;;;;;;;5086090;28;20200;-86
2023/10/17 03:22:27;;;;;;;3.63;3.33;;;;;;;;;;5087119;28;20237;-86
2023/10/17 03:25:09;;;;;;;3.35;3.05;;;;;;;;;;5086458;28;20235;-85
2023/10/17 03:27:47;;;;;;;2.95;2.75;;;;;;;;;;5086752;28;20299;-85
2023/10/17 03:30:19;;;;;;;2.42;2.22;;;;;;;;;;5086564;28;20223;-85
2023/10/17 03:33:02;;;;;;;2.30;2.10;;;;;;;;;;5087610;28;20200;-86
2023/10/17 03:35:35;;;;;;;3.03;2.83;;;;;;;;;;5086874;28;20205;-85
2023/10/17 03:38:02;;;;;;;1.92;1.83;;;;;;;;;;5086176;28;20306;-86
2023/10/17 03:40:35;;;;;;;3.53;3.22;;;;;;;;;;5087633;28;20630;-85
2023/10/17 03:43:11;;;;;;;2.58;2.38;;;;;;;;;;5086953;28;20200;-85
2023/10/17 03:45:51;;;;;;;2.60;2.40;;;;;;;;;;5086358;28;20999;-86
2023/10/17 03:48:20;;;;;;;3.25;2.95;;;;;;;;;;5085932;28;20283;-86
2023/10/17 03:50:58;;;;;;;3.13;2.83;;;;;;;;;;5086956;28;20240;-85
2023/10/17 03:53:28;;;;;;;2.15;2.05;;;;;;;;;;5086308;28;20231;-85
2023/10/17 03:56:00;;;;;;;2.15;1.98;;;;;;;;;;5087742;28;20208;-84
2023/10/17 03:58:43;;;;;;;2.58;2.10;;;;;;;;;;5085683;28;20581;-85
2023/10/17 04:01:12;;;;;;;2.28;2.08;;;;;;;;;;5085907;28;20200;-86
2023/10/17 04:03:42;;;;;;;1.73;1.63;;;;;;;;;;5085488;28;20231;-86
2023/10/17 04:06:18;;;;;;;2.10;2.00;;;;;;;;;;5084783;28;20196;-85
2023/10/17 04:08:50;;;;;;;3.00;2.70;;;;;;;;;;5085947;28;20207;-86
2023/10/17 04:11:25;;;;;;;2.65;2.45;;;;;;;;;;5083985;28;20306;-86
2023/10/17 04:13:55;;;;;;;3.05;2.85;;;;;;;;;;5083739;28;20574;-85
2023/10/17 04:16:33;;;;;;;2.40;2.20;;;;;;;;;;5089331;28;20196;-85
2023/10/17 04:19:01;;;;;;;2.47;2.28;;;;;;;;;;5106790;28;20223;-86
2023/10/17 04:21:29;;;;;;;2.08;1.98;;;;;;;;;;5105698;28;20389;-85
2023/10/17 04:23:59;;;;;;;1.90;1.80;;;;;;;;;;5093192;28;20216;-85
2023/10/17 04:26:28;;;;;;;3.10;2.80;;;;;;;;;;5074120;28;20565;-86
2023/10/17 04:29:00;;;;;;;3.38;3.15;;;;;;;;;;5072803;28;20204;-86
2023/10/17 04:31:29;;;;;;;4.30;3.85;;;;;;;;;;5073558;28;20581;-86
2023/10/17 04:34:05;;;;;;;3.88;3.47;;;;;;;;;;5072264;28;20255;-86
2023/10/17 04:36:37;;;;;;;3.50;3.20;;;;;;;;;;5073329;28;20652;-85
2023/10/17 04:39:18;;;;;;;2.20;2.03;;;;;;;;;;5073294;28;20658;-86
2023/10/17 04:44:36;;;;;;;2.67;2.47;;;;;;;;;;5072407;28;20365;-86
2023/10/17 04:49:53;;;;;;;7.28;3.40;;;;;;;;;;5072702;28;20210;-86
2023/10/17 04:52:21;;;;;;;3.85;3.45;;;;;;;;;;5072042;28;20712;-86
2023/10/17 04:54:52;;;;;;;4.10;3.15;;;;;;;;;;5072904;28;20232;-87
2023/10/17 04:57:19;;;;;;;3.83;3.42;;;;;;;;;;5072834;28;20211;-86
2023/10/17 05:00:09;;;;;;;4.65;4.20;;;;;;;;;;5076867;28;20213;-86
2023/10/17 05:02:36;;;;;;;6.95;6.13;;;;;;;;;;5077141;28;20237;-87
2023/10/17 06:16:58;;;;;;;2.72;2.53;;;;;;;;;;5094463;28;20578;-86
2023/10/17 06:19:27;;;;;;;2.65;2.45;;;;;;;;;;5094092;28;20283;-86
2023/10/17 06:24:46;;;;;;;2.75;2.53;;;;;;;;;;5092960;28;20227;-85
2023/10/17 06:33:02;;;;;;;3.50;3.05;;;;;;;;;;5093734;28;20700;-85
2023/10/17 06:35:31;;;;;;;3.15;2.85;;;;;;;;;;5094582;28;20236;-86
2023/10/17 06:38:00;;;;;;;4.00;3.25;;;;;;;;;;5093354;28;20200;-86
2023/10/17 06:40:33;;;;;;;3.67;3.08;;;;;;;;;;5094065;28;20192;-86
2023/10/17 06:43:06;;;;;;;3.80;3.10;;;;;;;;;;5094177;28;20569;-86
2023/10/17 06:45:37;;;;;;;3.42;3.13;;;;;;;;;;5093002;28;20656;-86
2023/10/17 06:48:08;;;;;;;2.78;2.58;;;;;;;;;;5094327;28;20232;-87
2023/10/17 06:53:27;;;;;;;3.45;3.15;;;;;;;;;;5092832;28;20723;-86
2023/10/17 06:55:59;;;;;;;4.32;3.33;;;;;;;;;;5093395;28;20265;-87
2023/10/17 06:58:27;;;;;;;5.75;3.63;;;;;;;;;;5093415;28;20207;-86
2023/10/17 07:00:59;;;;;;;11.73;4.03;;;;;;;;;;5094456;28;20223;-87
2023/10/17 07:03:27;;;;;;;3.58;3.28;;;;;;;;;;5093909;28;20216;-87
2023/10/17 07:06:04;;;;;;;3.25;2.97;;;;;;;;;;5094370;28;20260;-85
2023/10/17 07:08:37;;;;;;;4.38;3.20;;;;;;;;;;5093944;28;20203;-86
2023/10/17 07:11:09;;;;;;;3.20;2.90;;;;;;;;;;5094226;28;20219;-85
2023/10/17 07:14:11;;;;;;;4.15;3.00;;;;;;;;;;5092569;28;20736;-85
2023/10/17 07:16:45;;;;;;;4.07;3.00;;;;;;;;;;5092673;28;20208;-85
2023/10/17 07:22:06;;;;;;;5.43;4.07;;;;;;;;;;5093479;28;20597;-85
2023/10/17 07:24:37;;;;;;;3.92;3.58;;;;;;;;;;5093788;28;20308;-86
2023/10/17 07:27:11;;;;;;;5.78;3.70;;;;;;;;;;5093566;28;20287;-86
2023/10/17 07:29:45;;;;;;;3.08;2.85;;;;;;;;;;5095786;28;20229;-86
2023/10/17 07:32:16;;;;;;;4.03;3.20;;;;;;;;;;5094851;28;20220;-87
2023/10/17 07:34:44;;;;;;;3.58;3.28;;;;;;;;;;5093114;28;20265;-86
2023/10/17 07:37:22;;;;;;;2.90;2.60;;;;;;;;;;5092867;28;20207;-86
2023/10/17 07:42:46;;;;;;;4.78;3.83;;;;;;;;;;5092283;28;20196;-86
2023/10/17 07:45:17;;;;;;;4.22;3.63;;;;;;;;;;5092514;28;20219;-86
2023/10/17 07:47:51;;;;;;;3.80;3.47;;;;;;;;;;5096201;28;20231;-86
2023/10/17 07:50:20;;;;;;;3.20;2.90;;;;;;;;;;5089957;28;20202;-86
2023/10/17 07:52:51;;;;;;;3.72;3.42;;;;;;;;;;5086806;28;20227;-86
2023/10/17 07:55:34;;;;;;;3.25;2.95;;;;;;;;;;5092267;28;20222;-85
2023/10/17 07:58:06;;;;;;;3.47;2.83;;;;;;;;;;5094663;28;20204;-86
2023/10/17 08:00:34;;;;;;;2.95;2.72;;;;;;;;;;5096659;28;20196;-86
2023/10/17 08:03:07;;;;;;;2.88;2.67;;;;;;;;;;5095948;28;20203;-85
2023/10/17 08:05:38;;;;;;;3.25;2.95;;;;;;;;;;5096640;28;20232;-86
2023/10/17 08:08:12;;;;;;;3.55;3.25;;;;;;;;;;5096713;28;20197;-85
2023/10/17 08:10:45;;;;;;;5.22;3.67;;;;;;;;;;5096089;28;20212;-85
2023/10/17 08:13:14;;;;;;;3.47;3.17;;;;;;;;;;5096128;28;20220;-86
2023/10/17 08:15:46;;;;;;;3.20;2.97;;;;;;;;;;5096340;28;20197;-85
2023/10/17 08:18:17;;;;;;;3.17;2.88;;;;;;;;;;5096484;28;20196;-85
2023/10/17 08:21:26;;;;;;;4.15;3.75;;;;;;;;;;5088820;28;20284;-86
2023/10/17 08:23:41;;;;;;;3.53;3.20;;;;;;;;;;5078899;28;20267;-85
2023/10/17 08:26:17;;;;;;;3.88;3.50;;;;;;;;;;5075600;28;20758;-85
2023/10/17 08:28:50;;;;;;;4.55;3.50;;;;;;;;;;5076646;28;20201;-85
2023/10/17 08:31:20;;;;;;;5.15;3.72;;;;;;;;;;5075560;28;20205;-85
2023/10/17 08:33:52;;;;;;;3.60;3.30;;;;;;;;;;5077121;28;20239;-86
2023/10/17 08:36:23;;;;;;;4.18;3.80;;;;;;;;;;5077808;28;20205;-85
2023/10/17 08:38:54;;;;;;;3.70;3.40;;;;;;;;;;5083863;28;20204;-85
2023/10/17 08:41:25;;;;;;;3.28;2.97;;;;;;;;;;5087700;28;20208;-85
2023/10/17 08:43:54;;;;;;;8.43;3.75;;;;;;;;;;5080927;28;20689;-86
2023/10/17 08:46:22;;;;;;;4.32;3.92;;;;;;;;;;5075516;28;20203;-85
2023/10/17 08:48:56;;;;;;;3.47;3.17;;;;;;;;;;5084176;28;20729;-85
2023/10/17 08:51:25;;;;;;;3.80;3.50;;;;;;;;;;5086984;28;20617;-85
2023/10/17 08:53:54;;;;;;;4.45;4.00;;;;;;;;;;5095436;28;20225;-85
2023/10/17 08:56:23;;;;;;;7.85;4.93;;;;;;;;;;5095890;28;20287;-85
2023/10/17 08:59:03;;;;;;;5.75;4.30;;;;;;;;;;5095728;28;20700;-85
2023/10/17 09:01:30;;;;;;;4.85;4.43;;;;;;;;;;5095813;28;20208;-85
2023/10/17 09:04:03;;;;;;;7.13;4.72;;;;;;;;;;5095254;28;20212;-85
2023/10/17 09:06:32;;;;;;;4.95;4.55;;;;;;;;;;5095512;28;20197;-85
2023/10/17 09:12:19;;;;;;;6.47;4.97;;;;;;;;;;5094599;28;20681;-85
2023/10/17 09:14:49;;;;;;;4.35;3.97;;;;;;;;;;5094674;28;20231;-85
2023/10/17 09:17:30;;;;;;;6.88;5.32;;;;;;;;;;5095431;28;20193;-85
2023/10/17 09:20:06;;;;;;;6.40;5.80;;;;;;;;;;5094973;28;20196;-85
2023/10/17 09:22:41;;;;;;;11.98;5.90;;;;;;;;;;5094813;28;20241;-85
2023/10/17 09:25:22;;;;;;;4.30;3.90;;;;;;;;;;5095026;28;20688;-85
2023/10/17 09:27:52;;;;;;;4.85;4.35;;;;;;;;;;5095850;28;20206;-85
2023/10/17 09:30:23;;;;;;;3.20;2.90;;;;;;;;;;5101573;28;20263;-85
2023/10/17 09:32:51;;;;;;;3.65;3.40;;;;;;;;;;5113289;28;20227;-85
2023/10/17 09:35:18;;;;;;;3.35;3.05;;;;;;;;;;5112735;28;20248;-85
2023/10/17 09:37:50;;;;;;;3.13;2.88;;;;;;;;;;5111866;28;20207;-87
2023/10/17 09:40:25;;;;;;;4.10;3.72;;;;;;;;;;5097964;28;20207;-86
2023/10/17 09:42:54;;;;;;;6.53;4.70;;;;;;;;;;5098212;28;20200;-87
2023/10/17 09:45:22;;;;;;;5.50;4.97;;;;;;;;;;5098208;28;20246;-87
2023/10/17 09:47:57;;;;;;;5.05;4.65;;;;;;;;;;5098402;28;20200;-86
2023/10/17 09:50:26;;;;;;;5.65;4.85;;;;;;;;;;5097635;28;20258;-87
2023/10/17 09:52:57;;;;;;;6.32;5.35;;;;;;;;;;5098114;28;20207;-86
2023/10/17 09:55:26;;;;;;;5.30;4.80;;;;;;;;;;5097174;28;20677;-86
2023/10/17 09:58:02;;;;;;;5.20;4.70;;;;;;;;;;5097323;28;20283;-87
2023/10/17 10:00:38;;;;;;;4.97;4.57;;;;;;;;;;5097673;28;20200;-86
2023/10/17 10:03:06;;;;;;;4.45;3.67;;;;;;;;;;5097405;28;20192;-87
2023/10/17 10:05:34;;;;;;;4.55;4.13;;;;;;;;;;5095494;28;20778;-86
2023/10/17 10:08:03;;;;;;;4.50;4.10;;;;;;;;;;5094797;28;20277;-87
2023/10/17 10:10:51;;;;;;;4.90;4.50;;;;;;;;;;5096527;28;20200;-86
2023/10/17 10:13:21;;;;;;;5.10;4.40;;;;;;;;;;5096689;28;20311;-86
2023/10/17 10:15:53;;;;;;;4.07;3.67;;;;;;;;;;5096605;28;20287;-87
2023/10/17 10:18:57;;;;;;;3.40;3.10;;;;;;;;;;5096960;28;20287;-86
2023/10/17 10:21:58;;;;;;;4.18;3.78;;;;;;;;;;5083210;28;20689;-86
2023/10/17 10:24:31;;;;;;;3.20;2.90;;;;;;;;;;5097475;28;20225;-87
2023/10/17 10:27:26;;;;;;;3.95;3.45;;;;;;;;;;5097105;28;20211;-87
2023/10/17 10:29:56;;;;;;;2.72;2.53;;;;;;;;;;5097458;28;20211;-87
2023/10/17 10:32:32;;;;;;;3.80;3.50;;;;;;;;;;5097273;28;20196;-87
2023/10/17 10:35:01;;;;;;;3.13;2.75;;;;;;;;;;5097511;28;20755;-87
2023/10/17 10:37:29;;;;;;;3.05;2.83;;;;;;;;;;5097691;28;20260;-86
2023/10/17 10:40:10;;;;;;;2.55;2.35;;;;;;;;;;5097986;28;20193;-87
2023/10/17 10:42:47;;;;;;;3.60;3.35;;;;;;;;;;5097484;28;20204;-86
2023/10/17 10:45:35;;;;;;;3.53;3.22;;;;;;;;;;5097281;28;20215;-86
2023/10/17 10:48:07;;;;;;;3.30;3.00;;;;;;;;;;5097774;28;20212;-87
2023/10/17 10:50:36;;;;;;;3.60;3.30;;;;;;;;;;5092553;28;20236;-85
2023/10/17 10:53:18;;;;;;;3.25;3.05;;;;;;;;;;5093910;28;20211;-86
2023/10/17 10:55:56;;;;;;;2.50;2.30;;;;;;;;;;5098294;28;20228;-87
2023/10/17 10:58:27;;;;;;;2.30;2.20;;;;;;;;;;5097667;28;20203;-87
2023/10/17 11:01:00;;;;;;;2.72;2.50;;;;;;;;;;5098166;28;20215;-86
2023/10/17 11:03:28;;;;;;;2.28;2.08;;;;;;;;;;5098625;28;20308;-88
2023/10/17 11:05:58;;;;;;;3.40;3.10;;;;;;;;;;5098208;28;20733;-87
2023/10/17 11:08:26;;;;;;;2.58;2.38;;;;;;;;;;5097653;28;20579;-86
2023/10/17 11:11:02;;;;;;;2.53;2.33;;;;;;;;;;5097608;28;20302;-86
2023/10/17 11:13:34;;;;;;;3.17;2.97;;;;;;;;;;5099148;28;20243;-86
2023/10/17 11:16:05;;;;;;;1.80;1.70;;;;;;;;;;5097892;28;20231;-86
2023/10/17 11:18:34;;;;;;;2.53;2.30;;;;;;;;;;5098834;28;20647;-86
2023/10/17 11:21:04;;;;;;;3.38;2.50;;;;;;;;;;5097101;28;20676;-87
2023/10/17 11:23:33;;;;;;;1.92;1.83;;;;;;;;;;5079046;28;20224;-86
2023/10/17 11:26:01;;;;;;;1.98;1.73;;;;;;;;;;5079554;28;20224;-87
2023/10/17 11:28:29;;;;;;;2.05;1.85;;;;;;;;;;5078509;28;20746;-87
2023/10/17 11:30:58;;;;;;;2.13;2.03;;;;;;;;;;5077024;28;20284;-87
2023/10/17 11:33:37;;;;;;;2.03;1.88;;;;;;;;;;5080041;28;20217;-86
2023/10/17 11:36:12;;;;;;;1.60;1.50;;;;;;;;;;5081720;28;20220;-86
2023/10/17 11:38:40;;;;;;;2.10;1.85;;;;;;;;;;5082255;28;20201;-86
2023/10/17 11:41:09;;;;;;;1.52;1.42;;;;;;;;;;5081464;28;20201;-86
2023/10/17 11:43:42;;;;;;;2.03;1.92;;;;;;;;;;5081314;28;20243;-86
2023/10/17 11:46:13;;;;;;;2.50;2.30;;;;;;;;;;5081908;28;20243;-85
2023/10/17 11:48:44;;;;;;;3.88;2.50;;;;;;;;;;5082015;28;20205;-87
2023/10/17 11:51:16;;;;;;;3.30;1.98;;;;;;;;;;5088770;28;20201;-87
2023/10/17 11:54:05;;;;;;;1.67;1.55;;;;;;;;;;5095240;28;20226;-87
2023/10/17 11:56:33;;;;;;;2.33;2.13;;;;;;;;;;5101279;28;20259;-86
2023/10/17 11:59:02;;;;;;;1.67;1.50;;;;;;;;;;5101690;28;20378;-87
2023/10/17 12:01:32;;;;;;;2.30;2.10;;;;;;;;;;5102514;28;20723;-86
2023/10/17 12:04:06;;;;;;;2.00;1.88;;;;;;;;;;5102099;28;20310;-87
2023/10/17 12:06:34;;;;;;;2.78;2.58;;;;;;;;;;5102819;28;20205;-85
2023/10/17 12:09:17;;;;;;;2.42;2.22;;;;;;;;;;5100478;28;20257;-86
2023/10/17 12:11:47;;;;;;;1.95;1.85;;;;;;;;;;5102211;28;20212;-86
2023/10/17 12:14:19;;;;;;;2.28;2.08;;;;;;;;;;5103680;28;20220;-87
2023/10/17 12:16:49;;;;;;;2.28;2.05;;;;;;;;;;5101525;28;20219;-86
2023/10/17 12:19:18;;;;;;;2.28;2.10;;;;;;;;;;5100450;28;20230;-86
2023/10/17 12:21:47;;;;;;;2.05;1.85;;;;;;;;;;5087378;28;20587;-87
2023/10/17 12:24:16;;;;;;;1.83;1.70;;;;;;;;;;5099227;28;20274;-86
2023/10/17 12:26:45;;;;;;;2.25;2.13;;;;;;;;;;5101889;28;20196;-87
2023/10/17 12:29:13;;;;;;;1.77;1.67;;;;;;;;;;5100211;28;20200;-86
2023/10/17 12:31:40;;;;;;;1.75;1.65;;;;;;;;;;5100227;28;20200;-85
2023/10/17 12:34:08;;;;;;;1.45;1.35;;;;;;;;;;5099726;28;20652;-86
2023/10/17 12:36:37;;;;;;;2.83;2.03;;;;;;;;;;5100077;28;20228;-86
2023/10/17 12:39:07;;;;;;;2.80;1.70;;;;;;;;;;5101133;28;20284;-87
2023/10/17 12:41:35;;;;;;;1.48;1.38;;;;;;;;;;5101952;28;20211;-87
2023/10/17 12:44:03;;;;;;;2.00;1.90;;;;;;;;;;5101042;28;20283;-87
2023/10/17 12:46:31;;;;;;;2.28;2.08;;;;;;;;;;5101873;28;20283;-87
2023/10/17 12:48:59;;;;;;;1.70;1.60;;;;;;;;;;5104135;28;20193;-87
2023/10/17 12:51:27;;;;;;;2.85;1.70;;;;;;;;;;5101047;28;20204;-87
2023/10/17 12:53:56;;;;;;;1.55;1.42;;;;;;;;;;5101387;28;20231;-86
2023/10/17 12:56:25;;;;;;;1.70;1.60;;;;;;;;;;5101901;28;20227;-87
2023/10/17 12:58:52;;;;;;;1.40;1.30;;;;;;;;;;5101079;28;20196;-86
2023/10/17 13:01:24;;;;;;;1.30;1.20;;;;;;;;;;5101179;28;20192;-87
2023/10/17 13:03:53;;;;;;;1.83;1.73;;;;;;;;;;5100769;28;20216;-86
2023/10/17 13:06:24;;;;;;;1.45;1.33;;;;;;;;;;5101578;28;20200;-86
2023/10/17 13:08:56;;;;;;;3.65;1.88;;;;;;;;;;5101401;28;20200;-87
2023/10/17 13:11:26;;;;;;;1.73;1.30;;;;;;;;;;5100587;28;20211;-87
2023/10/17 13:13:54;;;;;;;1.20;1.20;;;;;;;;;;5100165;28;20227;-86
2023/10/17 13:16:23;;;;;;;1.20;1.15;;;;;;;;;;5099427;28;20598;-86
2023/10/17 13:18:51;;;;;;;6.40;1.38;;;;;;;;;;5100092;28;20196;-86
2023/10/17 13:21:18;;;;;;;1.55;1.45;;;;;;;;;;5098475;28;20211;-87
2023/10/17 13:23:46;;;;;;;1.48;1.38;;;;;;;;;;5099370;28;20287;-86
2023/10/17 13:26:15;;;;;;;1.10;1.05;;;;;;;;;;5099938;28;20203;-87
2023/10/17 13:28:44;;;;;;;1.55;1.40;;;;;;;;;;5100150;28;20189;-86
2023/10/17 13:31:12;;;;;;;1.27;1.15;;;;;;;;;;5100292;28;20293;-87
2023/10/17 13:33:41;;;;;;;1.20;1.10;;;;;;;;;;5099869;28;20216;-87
2023/10/17 13:36:10;;;;;;;1.70;1.60;;;;;;;;;;5099136;28;20634;-87
2023/10/17 13:38:38;;;;;;;1.60;1.50;;;;;;;;;;5099407;28;20199;-87
2023/10/17 13:41:09;;;;;;;1.80;1.70;;;;;;;;;;5099238;28;20277;-87
2023/10/17 13:43:38;;;;;;;1.38;1.27;;;;;;;;;;5098976;28;20220;-86
2023/10/17 13:46:12;;;;;;;1.50;1.35;;;;;;;;;;5100361;28;20193;-86
2023/10/17 13:48:40;;;;;;;1.83;1.60;;;;;;;;;;5099894;28;20199;-86
2023/10/17 13:51:08;;;;;;;1.98;1.40;;;;;;;;;;5091568;28;20641;-87
2023/10/17 13:53:37;;;;;;;1.60;1.50;;;;;;;;;;5098870;28;20256;-85
2023/10/17 13:56:07;;;;;;;1.20;1.10;;;;;;;;;;5098536;28;20223;-86
2023/10/17 13:58:36;;;;;;;1.75;1.23;;;;;;;;;;5099285;28;20200;-86
2023/10/17 14:01:27;;;;;;;1.70;1.60;;;;;;;;;;5098546;28;20287;-87
2023/10/17 14:03:54;;;;;;;1.58;1.48;;;;;;;;;;5097672;28;20220;-86
2023/10/17 14:06:22;;;;;;;1.52;1.23;;;;;;;;;;5098847;28;20381;-87
2023/10/17 14:08:49;;;;;;;1.40;1.30;;;;;;;;;;5100342;28;20202;-87
2023/10/17 14:11:18;;;;;;;1.20;1.10;;;;;;;;;;5099054;28;20294;-85
2023/10/17 14:13:46;;;;;;;1.38;1.20;;;;;;;;;;5098613;28;20225;-87
2023/10/17 14:16:15;;;;;;;1.30;1.20;;;;;;;;;;5099623;28;20212;-87
2023/10/17 14:18:44;;;;;;;1.30;1.20;;;;;;;;;;5099428;28;20295;-87
2023/10/17 14:21:34;;;;;;;2.53;1.30;;;;;;;;;;5097026;28;20212;-86
2023/10/17 14:24:07;;;;;;;1.75;1.65;;;;;;;;;;5098337;28;20220;-86
2023/10/17 14:26:35;;;;;;;2.60;1.75;;;;;;;;;;5099517;28;20204;-87
2023/10/17 14:29:02;;;;;;;1.60;1.50;;;;;;;;;;5099605;28;20578;-87
2023/10/17 14:31:30;;;;;;;1.90;1.77;;;;;;;;;;5099682;28;20200;-87
2023/10/17 14:33:59;;;;;;;1.63;1.42;;;;;;;;;;5098259;28;20220;-86
2023/10/17 14:36:28;;;;;;;1.60;1.50;;;;;;;;;;5099040;28;20227;-87
2023/10/17 14:38:56;;;;;;;1.75;1.65;;;;;;;;;;5087424;28;20280;-86
2023/10/17 14:41:24;;;;;;;1.50;1.40;;;;;;;;;;5087813;28;20291;-86
2023/10/17 14:43:51;;;;;;;1.40;1.27;;;;;;;;;;5097047;28;20251;-86
2023/10/17 14:46:20;;;;;;;1.40;1.30;;;;;;;;;;5097657;28;20231;-86
2023/10/17 14:48:48;;;;;;;1.88;1.60;;;;;;;;;;5098195;28;20291;-86
2023/10/17 14:51:16;;;;;;;6.38;1.45;;;;;;;;;;5097540;28;20672;-86
2023/10/17 14:53:46;;;;;;;1.60;1.50;;;;;;;;;;5106388;28;20284;-86
2023/10/17 14:56:13;;;;;;;1.92;1.30;;;;;;;;;;5111739;28;20264;-85
2023/10/17 14:58:42;;;;;;;2.72;1.30;;;;;;;;;;5109592;28;20242;-85
2023/10/17 15:01:10;;;;;;;0.88;0.88;;;;;;;;;;5103008;28;20197;-86
2023/10/17 15:03:38;;;;;;;1.58;1.17;;;;;;;;;;5098259;28;20217;-86
2023/10/17 15:06:09;;;;;;;1.70;1.58;;;;;;;;;;5099284;28;20196;-87
2023/10/17 15:08:37;;;;;;;2.25;1.50;;;;;;;;;;5099180;28;20200;-87
2023/10/17 15:11:07;;;;;;;1.17;1.17;;;;;;;;;;5090572;28;20211;-87
2023/10/17 15:13:34;;;;;;;1.05;1.02;;;;;;;;;;5098759;28;20238;-87
2023/10/17 15:16:03;;;;;;;1.42;1.33;;;;;;;;;;5101411;28;20295;-86
2023/10/17 15:18:31;;;;;;;1.40;1.30;;;;;;;;;;5098753;28;20223;-87
2023/10/17 15:21:08;;;;;;;1.50;1.02;;;;;;;;;;5098057;28;20294;-87
2023/10/17 15:23:35;;;;;;;1.05;1.05;;;;;;;;;;5098925;28;20220;-87
2023/10/17 15:26:03;;;;;;;1.23;1.15;;;;;;;;;;5098109;28;20638;-87
2023/10/17 15:28:32;;;;;;;1.40;1.30;;;;;;;;;;5097912;28;20189;-87
2023/10/17 15:31:04;;;;;;;1.05;0.98;;;;;;;;;;5098849;28;20295;-87
2023/10/17 15:33:32;;;;;;;2.40;1.17;;;;;;;;;;5097429;28;20748;-87
2023/10/17 15:35:59;;;;;;;1.20;1.10;;;;;;;;;;5097760;28;20211;-87
2023/10/17 15:38:27;;;;;;;1.15;1.05;;;;;;;;;;5097518;28;20219;-87
2023/10/17 15:40:54;;;;;;;1.75;1.25;;;;;;;;;;5092651;28;20287;-86
2023/10/17 15:43:22;;;;;;;1.80;1.38;;;;;;;;;;5097344;28;20717;-87
2023/10/17 15:45:54;;;;;;;2.15;1.95;;;;;;;;;;5097610;28;20259;-87
2023/10/17 15:48:23;;;;;;;1.38;1.27;;;;;;;;;;5097767;28;20662;-87
2023/10/17 15:50:50;;;;;;;1.48;1.38;;;;;;;;;;5097648;28;20204;-85
2023/10/17 15:53:18;;;;;;;0.90;0.90;;;;;;;;;;5098233;28;20285;-87
2023/10/17 15:55:53;;;;;;;1.27;1.00;;;;;;;;;;5097287;28;20718;-86
2023/10/17 15:58:21;;;;;;;0.90;0.90;;;;;;;;;;5096446;28;20215;-86
2023/10/17 16:00:51;;;;;;;1.10;1.10;;;;;;;;;;5097543;28;20301;-87
2023/10/17 16:03:19;;;;;;;1.35;1.13;;;;;;;;;;5097714;28;20216;-87
2023/10/17 16:05:51;;;;;;;1.33;1.23;;;;;;;;;;5097785;28;20215;-87
2023/10/17 16:08:19;;;;;;;1.48;1.30;;;;;;;;;;5098204;28;20673;-87
2023/10/17 16:10:47;;;;;;;1.35;1.25;;;;;;;;;;5097110;28;20211;-87
2023/10/17 16:13:15;;;;;;;1.20;1.20;;;;;;;;;;5097553;28;20216;-87
2023/10/17 16:15:43;;;;;;;1.40;1.30;;;;;;;;;;5097956;28;20227;-87
2023/10/17 16:18:12;;;;;;;1.52;1.42;;;;;;;;;;5099031;28;20235;-87
2023/10/17 16:20:41;;;;;;;2.25;1.63;;;;;;;;;;5101669;28;20804;-87
2023/10/17 16:23:09;;;;;;;2.47;2.28;;;;;;;;;;5101299;28;20412;-86
2023/10/17 16:25:39;;;;;;;2.45;2.33;;;;;;;;;;5099075;28;20192;-87
2023/10/17 16:28:07;;;;;;;1.90;1.70;;;;;;;;;;5099095;28;20207;-86
2023/10/17 16:30:33;;;;;;;2.30;1.88;;;;;;;;;;5098655;28;20740;-86
2023/10/17 16:33:01;;;;;;;1.40;1.30;;;;;;;;;;5098796;28;20228;-86
2023/10/17 16:35:35;;;;;;;1.65;1.55;;;;;;;;;;5098344;28;20200;-86
2023/10/17 16:38:04;;;;;;;2.08;1.98;;;;;;;;;;5098349;28;20224;-86
2023/10/17 16:40:32;;;;;;;2.08;1.80;;;;;;;;;;5087028;28;20694;-86
2023/10/17 16:42:59;;;;;;;1.70;1.50;;;;;;;;;;5078307;28;20584;-86
2023/10/17 16:45:27;;;;;;;1.83;1.73;;;;;;;;;;5079190;28;20292;-86
2023/10/17 16:47:55;;;;;;;1.88;1.60;;;;;;;;;;5078953;28;20220;-86
2023/10/17 16:50:24;;;;;;;1.73;1.63;;;;;;;;;;5079039;28;20288;-86